Time;durP1;ratioP1;P1;durP2;ratioP2;P2;SDS_P1;SDS_P2;PMS_P1;PMS_P2;Temp;Humidity;BMP_temperature;BMP_pressure;BME280_temperature;BME280_humidity;BME280_pressure;Samples;Min_cycle;Max_cycle;Signal;HPM_P1;HPM_P2
2021/06/11 00:01:24;;;;;;;8.50;7.80;;;22.30;64.00;;;;;;5034175;28;20284;-54
2021/06/11 00:03:50;;;;;;;9.03;8.13;;;22.30;63.70;;;;;;5033978;28;21045;-54
2021/06/11 00:06:15;;;;;;;9.60;8.70;;;22.40;63.40;;;;;;5033871;28;20687;-54
2021/06/11 00:08:41;;;;;;;9.20;8.40;;;22.50;63.00;;;;;;5034065;28;20531;-52
2021/06/11 00:11:06;;;;;;;10.17;8.83;;;22.60;62.40;;;;;;5034025;28;20264;-52
2021/06/11 00:13:32;;;;;;;8.33;7.63;;;22.70;62.10;;;;;;5034047;28;20193;-51
2021/06/11 00:15:58;;;;;;;9.53;8.57;;;22.70;61.70;;;;;;5031887;28;20224;-54
2021/06/11 00:18:23;;;;;;;8.67;7.97;;;22.80;61.60;;;;;;5034504;28;20227;-53
2021/06/11 00:20:49;;;;;;;9.53;7.90;;;22.70;61.40;;;;;;5019951;28;20201;-54
2021/06/11 00:23:15;;;;;;;8.60;7.90;;;22.80;61.40;;;;;;5014691;28;20186;-51
2021/06/11 00:25:40;;;;;;;9.77;8.77;;;22.80;61.30;;;;;;5013467;28;20225;-51
2021/06/11 00:28:06;;;;;;;9.53;8.73;;;22.80;61.10;;;;;;5014055;28;20970;-54
2021/06/11 00:30:33;;;;;;;8.80;8.10;;;22.70;61.00;;;;;;5013456;28;20204;-52
2021/06/11 00:32:59;;;;;;;9.50;8.60;;;22.70;61.20;;;;;;5013679;28;20576;-51
2021/06/11 00:35:25;;;;;;;8.73;8.03;;;22.70;61.10;;;;;;5013266;28;20425;-51
2021/06/11 00:37:51;;;;;;;9.07;8.37;;;22.60;61.10;;;;;;5014155;28;20429;-52
2021/06/11 00:40:17;;;;;;;10.20;9.10;;;22.60;61.10;;;;;;5013111;28;20201;-52
2021/06/11 00:42:43;;;;;;;9.30;8.50;;;22.40;61.50;;;;;;5021725;28;20201;-52
2021/06/11 00:45:11;;;;;;;8.17;7.40;;;22.50;61.60;;;;;;5013014;28;20484;-53
2021/06/11 00:47:36;;;;;;;9.13;8.30;;;22.50;61.30;;;;;;5013923;28;20677;-50
2021/06/11 00:50:03;;;;;;;9.23;8.33;;;22.40;61.00;;;;;;5013526;28;20467;-54
2021/06/11 00:52:31;;;;;;;8.80;8.10;;;22.20;62.30;;;;;;5025717;28;20219;-51
2021/06/11 00:54:58;;;;;;;10.07;9.13;;;22.10;62.60;;;;;;5032483;28;20946;-53
2021/06/11 00:57:24;;;;;;;11.67;8.60;;;21.70;64.20;;;;;;5033619;28;20490;-50
2021/06/11 00:59:51;;;;;;;10.73;9.60;;;21.60;64.70;;;;;;5033019;28;20428;-51
2021/06/11 01:02:16;;;;;;;9.70;8.80;;;21.60;65.20;;;;;;5033269;28;20955;-53
2021/06/11 01:04:42;;;;;;;11.53;9.20;;;21.60;64.80;;;;;;5032532;28;20488;-54
2021/06/11 01:07:08;;;;;;;9.60;8.73;;;21.70;65.00;;;;;;5033236;28;20204;-51
2021/06/11 01:09:37;;;;;;;9.57;8.43;;;21.70;64.60;;;;;;5029638;28;20649;-54
2021/06/11 01:12:04;;;;;;;9.27;8.27;;;21.80;64.20;;;;;;5033082;28;20240;-54
2021/06/11 01:14:31;;;;;;;9.80;8.80;;;21.80;64.00;;;;;;5032433;28;20924;-54
2021/06/11 01:16:57;;;;;;;10.23;9.33;;;21.80;64.30;;;;;;5033020;28;20916;-54
2021/06/11 01:19:29;;;;;;;10.97;9.87;;;21.70;64.80;;;;;;5030369;28;20489;-54
2021/06/11 01:22:17;;;;;;;9.07;8.37;;;21.60;65.00;;;;;;5013272;28;20182;-51
2021/06/11 01:25:04;;;;;;;8.97;8.17;;;21.70;64.80;;;;;;5012052;28;20476;-53
2021/06/11 01:27:32;;;;;;;9.40;8.60;;;21.80;64.50;;;;;;5013142;28;20432;-55
2021/06/11 01:30:05;;;;;;;10.23;9.20;;;21.70;64.50;;;;;;5011492;28;20441;-53
2021/06/11 01:32:34;;;;;;;9.60;8.70;;;21.50;65.00;;;;;;5013222;28;20490;-55
2021/06/11 01:35:07;;;;;;;9.83;9.03;;;21.40;65.70;;;;;;5012171;28;20439;-54
2021/06/11 01:37:34;;;;;;;10.30;9.20;;;21.10;66.40;;;;;;5011900;28;20486;-53
2021/06/11 01:40:05;;;;;;;8.27;7.57;;;20.80;67.70;;;;;;5012396;28;20853;-55
2021/06/11 01:42:35;;;;;;;10.03;9.13;;;20.70;68.20;;;;;;5021880;28;20505;-54
2021/06/11 01:45:08;;;;;;;9.10;8.20;;;20.80;67.50;;;;;;5011886;28;20500;-50
2021/06/11 01:47:37;;;;;;;8.63;7.93;;;20.70;68.40;;;;;;5020580;28;20431;-53
2021/06/11 01:50:05;;;;;;;8.90;8.20;;;20.60;68.40;;;;;;5031969;28;20428;-53
2021/06/11 01:52:33;;;;;;;9.57;8.67;;;20.70;68.30;;;;;;5032754;28;20522;-54
2021/06/11 01:54:59;;;;;;;9.17;8.37;;;20.60;68.80;;;;;;5031434;28;20416;-55
2021/06/11 01:57:26;;;;;;;9.37;8.27;;;20.70;67.90;;;;;;5032656;28;20911;-52
2021/06/11 01:59:52;;;;;;;9.73;8.93;;;20.60;67.80;;;;;;5031682;28;20420;-54
2021/06/11 02:02:20;;;;;;;10.27;9.47;;;20.70;67.80;;;;;;5030751;28;20801;-55
2021/06/11 02:04:46;;;;;;;9.20;8.40;;;20.80;67.00;;;;;;5030997;28;20480;-54
2021/06/11 02:07:13;;;;;;;9.77;8.97;;;20.80;66.70;;;;;;5032046;28;20424;-54
2021/06/11 02:09:41;;;;;;;9.90;9.00;;;20.70;66.90;;;;;;5031872;28;20428;-54
2021/06/11 02:12:09;;;;;;;10.43;9.53;;;20.80;67.00;;;;;;5031846;28;20525;-54
2021/06/11 02:14:36;;;;;;;10.43;9.43;;;20.80;66.70;;;;;;5031294;28;20440;-54
2021/06/11 02:17:04;;;;;;;9.03;8.23;;;21.00;66.20;;;;;;5032239;28;20812;-52
2021/06/11 02:19:32;;;;;;;8.83;8.07;;;21.10;65.70;;;;;;5028539;28;20433;-54
2021/06/11 02:21:58;;;;;;;9.27;8.40;;;21.10;65.50;;;;;;5012447;28;20512;-53
2021/06/11 02:24:24;;;;;;;8.10;7.40;;;20.80;66.10;;;;;;5011041;28;20540;-52
2021/06/11 02:26:50;;;;;;;7.43;6.83;;;20.80;66.30;;;;;;5012075;28;20194;-54
2021/06/11 02:29:17;;;;;;;8.93;8.23;;;20.90;66.20;;;;;;5010410;28;20193;-51
2021/06/11 02:31:42;;;;;;;9.20;7.50;;;20.90;66.10;;;;;;5011739;28;20432;-54
2021/06/11 02:34:08;;;;;;;8.60;7.90;;;20.90;66.10;;;;;;5010928;28;20428;-53
2021/06/11 02:36:34;;;;;;;8.13;7.53;;;20.90;65.80;;;;;;5012094;28;20265;-54
2021/06/11 02:39:00;;;;;;;8.93;8.03;;;20.80;66.20;;;;;;5011621;28;20232;-54
2021/06/11 02:41:32;;;;;;;9.73;7.73;;;20.90;65.90;;;;;;5018324;28;20516;-54
2021/06/11 02:43:59;;;;;;;8.70;8.00;;;20.90;65.70;;;;;;5013179;28;20479;-53
2021/06/11 02:46:47;;;;;;;8.10;7.40;;;20.90;65.80;;;;;;5011704;28;20583;-54
2021/06/11 02:49:29;;;;;;;8.10;7.40;;;20.90;65.70;;;;;;5011243;28;20512;-53
2021/06/11 02:51:59;;;;;;;8.40;7.60;;;20.90;66.10;;;;;;5018964;28;20436;-53
2021/06/11 02:54:33;;;;;;;9.67;8.10;;;21.00;64.90;;;;;;5031065;28;20878;-54
2021/06/11 02:57:13;;;;;;;17.27;8.60;;;20.90;65.00;;;;;;5034876;28;20431;-52
2021/06/11 02:59:46;;;;;;;10.27;9.07;;;20.70;65.70;;;;;;5034913;28;20809;-54
2021/06/11 03:02:15;;;;;;;44.80;9.67;;;20.50;66.90;;;;;;5035618;28;20485;-54
2021/06/11 03:04:44;;;;;;;9.50;8.60;;;20.60;66.90;;;;;;5034557;28;20546;-54
2021/06/11 03:07:16;;;;;;;9.77;8.70;;;20.70;66.60;;;;;;5034366;28;20442;-54
2021/06/11 03:09:42;;;;;;;11.20;7.80;;;20.80;66.20;;;;;;5034707;28;20458;-54
2021/06/11 03:12:10;;;;;;;8.93;8.23;;;20.70;66.10;;;;;;5035625;28;20566;-55
2021/06/11 03:14:36;;;;;;;8.87;7.97;;;20.60;66.30;;;;;;5018686;28;20947;-53
2021/06/11 03:17:03;;;;;;;8.40;7.70;;;20.60;66.30;;;;;;5015644;28;20421;-50
2021/06/11 03:19:36;;;;;;;8.17;7.33;;;20.50;66.00;;;;;;5023435;28;20797;-50
2021/06/11 03:22:08;;;;;;;8.37;7.70;;;20.50;66.00;;;;;;5014055;28;20440;-53
2021/06/11 03:24:56;;;;;;;9.20;8.07;;;20.50;66.10;;;;;;5014509;28;20975;-54
2021/06/11 03:27:30;;;;;;;8.07;7.23;;;20.40;66.50;;;;;;5015720;28;20436;-52
2021/06/11 03:30:08;;;;;;;8.23;7.53;;;20.50;66.40;;;;;;5014713;28;20856;-51
2021/06/11 03:32:42;;;;;;;8.67;7.33;;;20.40;66.70;;;;;;5015256;28;20440;-54
2021/06/11 03:35:17;;;;;;;9.63;7.07;;;20.30;66.90;;;;;;5014702;28;20792;-50
2021/06/11 03:37:47;;;;;;;8.37;7.60;;;20.30;67.10;;;;;;5015123;28;20429;-50
2021/06/11 03:40:18;;;;;;;6.90;6.30;;;20.10;67.80;;;;;;5014624;28;20498;-54
2021/06/11 03:42:45;;;;;;;7.90;7.27;;;20.00;68.30;;;;;;5032127;28;20519;-50
2021/06/11 03:45:11;;;;;;;8.40;7.63;;;20.00;68.60;;;;;;5020143;28;20538;-51
2021/06/11 03:47:38;;;;;;;8.30;7.50;;;20.10;68.70;;;;;;5013577;28;20425;-51
2021/06/11 03:50:05;;;;;;;9.97;9.07;;;19.90;68.60;;;;;;5014152;28;20471;-51
2021/06/11 03:52:35;;;;;;;8.67;7.83;;;19.80;69.70;;;;;;5027263;28;20497;-51
2021/06/11 03:55:12;;;;;;;8.47;7.60;;;20.00;69.60;;;;;;5033737;28;20931;-51
2021/06/11 03:57:41;;;;;;;8.60;7.70;;;20.10;68.70;;;;;;5033232;28;20534;-53
2021/06/11 04:00:08;;;;;;;8.10;7.40;;;20.10;69.10;;;;;;5033904;28;20463;-53
2021/06/11 04:02:34;;;;;;;9.77;8.90;;;20.10;69.10;;;;;;5034251;28;20444;-54
2021/06/11 04:04:59;;;;;;;9.60;8.80;;;20.10;69.00;;;;;;5033518;28;21048;-54
2021/06/11 04:07:35;;;;;;;9.97;9.17;;;19.90;69.50;;;;;;5032915;28;20436;-53
2021/06/11 04:10:24;;;;;;;9.73;8.57;;;19.80;70.20;;;;;;5033713;28;20280;-50
2021/06/11 04:12:53;;;;;;;9.03;8.27;;;19.80;70.20;;;;;;5003674;28;20513;-52
2021/06/11 04:15:19;;;;;;;9.37;8.47;;;19.80;70.40;;;;;;5012097;28;20491;-52
2021/06/11 04:17:55;;;;;;;10.20;9.30;;;19.80;70.50;;;;;;5014437;28;20421;-53
2021/06/11 04:20:29;;;;;;;10.33;9.30;;;19.70;70.60;;;;;;5021977;28;20676;-53
2021/06/11 04:22:59;;;;;;;13.87;9.70;;;19.50;71.70;;;;;;5014369;28;20936;-53
2021/06/11 04:25:32;;;;;;;9.90;8.93;;;19.00;73.40;;;;;;5013262;28;20591;-54
2021/06/11 04:27:59;;;;;;;11.07;10.10;;;18.60;75.20;;;;;;5014141;28;20806;-51
2021/06/11 04:30:25;;;;;;;9.83;8.93;;;18.80;75.50;;;;;;5013880;28;20421;-53
2021/06/11 04:32:51;;;;;;;9.50;8.53;;;19.00;74.10;;;;;;5014341;28;20786;-54
2021/06/11 04:35:24;;;;;;;11.03;10.03;;;19.00;73.90;;;;;;5011836;28;20679;-51
2021/06/11 04:37:51;;;;;;;11.43;9.70;;;19.10;73.20;;;;;;5013830;28;20440;-50
2021/06/11 04:40:17;;;;;;;11.30;10.30;;;19.20;72.60;;;;;;5013396;28;20429;-54
2021/06/11 04:42:43;;;;;;;10.67;9.67;;;19.30;72.30;;;;;;5023298;28;20436;-54
2021/06/11 04:45:10;;;;;;;11.93;10.70;;;19.30;72.40;;;;;;5013119;28;20480;-54
2021/06/11 04:47:36;;;;;;;10.13;9.23;;;19.30;72.30;;;;;;5013813;28;20555;-54
2021/06/11 04:50:02;;;;;;;10.57;9.47;;;19.40;72.10;;;;;;5013311;28;20516;-54
2021/06/11 04:52:27;;;;;;;10.90;9.93;;;19.60;71.80;;;;;;5025550;28;20196;-51
2021/06/11 04:54:53;;;;;;;10.93;10.03;;;19.60;71.50;;;;;;5032956;28;20428;-55
2021/06/11 04:57:19;;;;;;;9.10;8.30;;;19.70;71.30;;;;;;5033749;28;20203;-54
2021/06/11 04:59:44;;;;;;;9.80;8.87;;;19.60;71.90;;;;;;5032664;28;20577;-51
2021/06/11 05:02:10;;;;;;;10.70;9.73;;;19.60;72.20;;;;;;5033110;28;20731;-50
2021/06/11 05:04:36;;;;;;;10.00;9.10;;;19.60;71.90;;;;;;5031155;28;20239;-53
2021/06/11 05:07:02;;;;;;;11.60;10.50;;;19.70;71.80;;;;;;5032048;28;20649;-54
2021/06/11 05:09:28;;;;;;;10.17;9.20;;;19.60;72.50;;;;;;5032519;28;20460;-54
2021/06/11 05:11:54;;;;;;;10.13;9.23;;;19.70;72.10;;;;;;5033039;28;20995;-53
2021/06/11 05:14:20;;;;;;;11.60;9.73;;;19.80;71.30;;;;;;5032111;28;20197;-54
2021/06/11 05:16:46;;;;;;;10.93;10.03;;;20.00;70.90;;;;;;5032905;28;20519;-52
2021/06/11 05:19:12;;;;;;;10.83;9.73;;;20.10;70.50;;;;;;5031553;28;20870;-54
2021/06/11 05:21:38;;;;;;;10.60;9.60;;;20.10;70.70;;;;;;5013220;28;20277;-53
2021/06/11 05:24:04;;;;;;;11.13;10.03;;;20.20;70.40;;;;;;5012333;28;20190;-52
2021/06/11 05:26:30;;;;;;;11.17;10.13;;;20.10;70.80;;;;;;5013367;28;20340;-52
2021/06/11 05:28:56;;;;;;;11.30;10.20;;;20.10;70.90;;;;;;5012449;28;20958;-53
2021/06/11 05:31:21;;;;;;;10.70;9.70;;;19.90;71.30;;;;;;5012937;28;20205;-53
2021/06/11 05:33:47;;;;;;;11.80;10.73;;;20.10;71.50;;;;;;5010593;28;20716;-54
2021/06/11 05:36:12;;;;;;;10.53;9.63;;;20.10;71.10;;;;;;5012833;28;20224;-53
2021/06/11 05:38:38;;;;;;;10.77;9.87;;;20.10;71.20;;;;;;5012130;28;20194;-54
2021/06/11 05:41:04;;;;;;;11.40;10.23;;;19.90;71.60;;;;;;5016179;28;20185;-50
2021/06/11 05:43:30;;;;;;;9.23;8.53;;;20.00;71.90;;;;;;5018902;28;20190;-51
2021/06/11 05:45:57;;;;;;;11.07;9.90;;;20.00;71.60;;;;;;5012340;28;20328;-50
2021/06/11 05:48:23;;;;;;;13.50;10.57;;;20.00;71.60;;;;;;5012571;28;20433;-52
2021/06/11 05:50:49;;;;;;;9.03;8.13;;;20.40;70.90;;;;;;5012343;28;20425;-50
2021/06/11 05:53:15;;;;;;;9.67;8.87;;;20.70;69.40;;;;;;5030812;28;20439;-50
2021/06/11 05:55:40;;;;;;;9.70;8.90;;;20.90;68.30;;;;;;5031469;28;20793;-50
2021/06/11 05:58:09;;;;;;;8.97;8.27;;;21.20;67.80;;;;;;5032094;28;20213;-51
2021/06/11 06:00:35;;;;;;;9.30;8.50;;;21.30;66.50;;;;;;5030090;28;20197;-54
2021/06/11 06:03:00;;;;;;;11.67;8.97;;;21.30;66.60;;;;;;5032316;28;20435;-50
2021/06/11 06:05:26;;;;;;;9.47;8.60;;;21.20;66.80;;;;;;5031228;28;20225;-50
2021/06/11 06:07:51;;;;;;;10.17;9.27;;;21.50;66.40;;;;;;5031888;28;20189;-51
2021/06/11 06:10:17;;;;;;;9.43;8.63;;;21.60;65.30;;;;;;5031802;28;20204;-50
2021/06/11 06:12:43;;;;;;;9.10;8.30;;;21.70;65.20;;;;;;5031885;28;20248;-53
2021/06/11 06:15:09;;;;;;;9.50;8.67;;;21.90;65.30;;;;;;5031215;28;20227;-50
2021/06/11 06:17:35;;;;;;;8.70;7.90;;;22.10;64.50;;;;;;5031929;28;20197;-51
2021/06/11 06:20:04;;;;;;;9.43;8.60;;;22.30;63.40;;;;;;5024425;28;20456;-54
2021/06/11 06:22:29;;;;;;;9.40;8.50;;;22.50;62.80;;;;;;5012328;28;20431;-51
2021/06/11 06:24:55;;;;;;;11.70;8.77;;;22.70;62.30;;;;;;5011126;28;20843;-54
2021/06/11 06:27:21;;;;;;;9.93;9.07;;;23.00;61.80;;;;;;5010525;28;20281;-51
2021/06/11 06:29:46;;;;;;;10.57;9.00;;;23.10;60.80;;;;;;5010892;28;20186;-51
2021/06/11 06:32:12;;;;;;;9.23;8.43;;;23.30;60.10;;;;;;5011769;28;20186;-52
2021/06/11 06:34:37;;;;;;;9.30;8.50;;;23.40;59.50;;;;;;5011082;28;20549;-52
2021/06/11 06:37:04;;;;;;;9.70;8.77;;;23.60;59.20;;;;;;5012223;28;20229;-53
2021/06/11 06:39:30;;;;;;;8.70;8.00;;;23.70;58.90;;;;;;5011641;28;20202;-54
2021/06/11 06:41:57;;;;;;;9.67;8.73;;;23.90;58.50;;;;;;5021970;28;20799;-50
2021/06/11 06:44:23;;;;;;;8.97;8.27;;;24.00;58.20;;;;;;5010904;28;20674;-51
2021/06/11 06:46:49;;;;;;;9.17;8.43;;;24.10;58.00;;;;;;5011790;28;20456;-50
2021/06/11 06:49:14;;;;;;;8.93;8.20;;;24.20;57.50;;;;;;5011243;28;20194;-51
2021/06/11 06:51:40;;;;;;;9.10;8.23;;;24.30;58.10;;;;;;5017081;28;20185;-50
2021/06/11 06:54:06;;;;;;;9.00;8.30;;;24.40;57.20;;;;;;5029002;28;20247;-51
2021/06/11 06:56:31;;;;;;;8.97;8.17;;;24.60;57.30;;;;;;5031530;28;20231;-52
2021/06/11 06:58:57;;;;;;;10.13;9.33;;;24.70;57.00;;;;;;5030768;28;20656;-50
2021/06/11 07:01:25;;;;;;;9.23;8.10;;;24.90;56.60;;;;;;5031528;28;20193;-50
2021/06/11 07:03:56;;;;;;;8.23;7.43;;;25.00;56.70;;;;;;5030725;28;20201;-50
2021/06/11 07:06:22;;;;;;;8.03;7.40;;;25.20;56.40;;;;;;5031504;28;20487;-51
2021/06/11 07:08:48;;;;;;;9.90;8.93;;;25.40;56.00;;;;;;5030865;28;20444;-50
2021/06/11 07:11:13;;;;;;;9.30;8.47;;;25.20;54.90;;;;;;5031222;28;20897;-51
2021/06/11 07:13:39;;;;;;;9.10;8.30;;;25.00;56.10;;;;;;5030679;28;20284;-54
2021/06/11 07:16:05;;;;;;;8.67;7.97;;;25.30;56.60;;;;;;5031374;28;20215;-54
2021/06/11 07:18:30;;;;;;;8.50;7.80;;;25.60;55.90;;;;;;5031211;28;20193;-54
2021/06/11 07:20:56;;;;;;;8.70;8.00;;;25.70;55.20;;;;;;5015550;28;20258;-54
2021/06/11 07:23:21;;;;;;;9.30;8.70;;;26.00;55.50;;;;;;5011686;28;20197;-54
2021/06/11 07:25:47;;;;;;;8.60;7.90;;;26.30;54.20;;;;;;5010559;28;20665;-55
2021/06/11 07:28:13;;;;;;;10.10;8.50;;;26.50;53.50;;;;;;5011285;28;20198;-54
2021/06/11 07:30:38;;;;;;;8.97;8.20;;;26.70;52.80;;;;;;5010881;28;20189;-54
2021/06/11 07:33:04;;;;;;;9.00;8.10;;;26.70;52.00;;;;;;5011598;28;20201;-56
2021/06/11 07:35:30;;;;;;;9.00;8.20;;;26.80;52.10;;;;;;5010819;28;20252;-54
2021/06/11 07:37:55;;;;;;;9.00;8.27;;;27.00;52.00;;;;;;5011454;28;20190;-54
2021/06/11 07:40:21;;;;;;;9.67;8.83;;;27.00;51.70;;;;;;5011124;28;20194;-54
2021/06/11 07:42:47;;;;;;;9.87;8.97;;;27.00;51.30;;;;;;5023931;28;20186;-54
2021/06/11 07:45:13;;;;;;;9.67;8.77;;;26.90;51.30;;;;;;5014150;28;20232;-55
2021/06/11 07:47:39;;;;;;;9.33;8.53;;;27.00;51.20;;;;;;5013254;28;20190;-54
2021/06/11 07:50:06;;;;;;;9.37;8.47;;;27.30;50.80;;;;;;5014456;28;20650;-54
2021/06/11 07:52:35;;;;;;;9.43;8.57;;;27.30;51.00;;;;;;5027670;28;20431;-54
2021/06/11 07:55:01;;;;;;;9.23;8.53;;;27.40;50.40;;;;;;5033819;28;20446;-55
2021/06/11 07:57:26;;;;;;;8.63;7.90;;;27.50;49.70;;;;;;5034598;28;20424;-54
2021/06/11 07:59:52;;;;;;;9.70;8.90;;;27.80;49.70;;;;;;5033789;28;20648;-54
2021/06/11 08:02:17;;;;;;;9.33;8.70;;;28.00;48.50;;;;;;5034461;28;20246;-51
2021/06/11 08:04:43;;;;;;;8.83;8.13;;;28.10;48.30;;;;;;5033404;28;20827;-54
2021/06/11 08:07:09;;;;;;;8.90;8.20;;;27.90;49.20;;;;;;5034381;28;20182;-55
2021/06/11 08:09:35;;;;;;;8.77;8.07;;;28.10;49.40;;;;;;5033848;28;20612;-55
2021/06/11 08:12:00;;;;;;;8.50;7.70;;;28.30;50.20;;;;;;5034148;28;20229;-55
2021/06/11 08:14:26;;;;;;;9.03;8.13;;;28.60;49.60;;;;;;5032150;28;20427;-55
2021/06/11 08:16:52;;;;;;;10.27;9.47;;;28.70;47.90;;;;;;5034610;28;20189;-55
2021/06/11 08:19:17;;;;;;;9.43;8.53;;;28.60;47.60;;;;;;5031951;28;20193;-55
2021/06/11 08:21:43;;;;;;;8.23;7.30;;;28.50;48.10;;;;;;5014488;28;20599;-55
2021/06/11 08:24:09;;;;;;;8.87;8.17;;;28.40;48.90;;;;;;5013235;28;20194;-55
2021/06/11 08:26:35;;;;;;;9.27;8.57;;;28.60;49.80;;;;;;5014374;28;20218;-54
2021/06/11 08:29:00;;;;;;;9.80;9.07;;;28.70;49.00;;;;;;5012274;28;20255;-52
2021/06/11 08:31:26;;;;;;;9.57;8.67;;;29.00;47.90;;;;;;5014315;28;20284;-54
2021/06/11 08:33:51;;;;;;;8.00;7.40;;;29.30;48.60;;;;;;5013299;28;20190;-55
2021/06/11 08:36:17;;;;;;;9.80;9.00;;;29.60;48.60;;;;;;5014177;28;20198;-55
2021/06/11 08:38:43;;;;;;;7.77;7.13;;;29.70;47.00;;;;;;5012149;28;20198;-54
2021/06/11 08:41:12;;;;;;;11.53;8.40;;;30.10;46.90;;;;;;5017469;28;20185;-54
2021/06/11 08:43:38;;;;;;;10.33;9.43;;;30.20;46.20;;;;;;5018166;28;20717;-55
2021/06/11 08:46:04;;;;;;;9.50;8.80;;;30.40;45.70;;;;;;5013940;28;20488;-54
2021/06/11 08:48:29;;;;;;;8.50;7.77;;;30.50;44.80;;;;;;5013957;28;20421;-54
2021/06/11 08:50:55;;;;;;;9.57;8.60;;;30.40;45.50;;;;;;5013246;28;20216;-49
2021/06/11 08:53:21;;;;;;;8.90;8.27;;;30.50;45.20;;;;;;5032044;28;20196;-52
2021/06/11 08:55:47;;;;;;;7.87;7.27;;;30.60;44.20;;;;;;5032663;28;20204;-55
2021/06/11 08:58:13;;;;;;;7.93;7.37;;;30.70;44.20;;;;;;5031895;28;20523;-52
2021/06/11 09:00:40;;;;;;;8.93;8.33;;;30.80;44.10;;;;;;5033253;28;20233;-50
2021/06/11 09:03:13;;;;;;;8.07;7.40;;;30.70;43.80;;;;;;5033308;28;20436;-52
2021/06/11 09:05:58;;;;;;;8.37;7.77;;;30.90;44.50;;;;;;5030718;28;20511;-52
2021/06/11 09:08:24;;;;;;;9.30;8.53;;;30.90;42.80;;;;;;5032969;28;20431;-52
2021/06/11 09:10:51;;;;;;;8.90;8.30;;;30.50;43.20;;;;;;5032348;28;20451;-52
2021/06/11 09:13:26;;;;;;;8.10;7.60;;;30.30;43.90;;;;;;5033023;28;20205;-51
2021/06/11 09:16:04;;;;;;;9.20;8.50;;;29.90;45.10;;;;;;5032551;28;20464;-52
2021/06/11 09:18:30;;;;;;;8.57;7.97;;;30.30;44.70;;;;;;5033044;28;20803;-52
2021/06/11 09:20:56;;;;;;;8.00;7.50;;;30.90;45.20;;;;;;5018168;28;20536;-52
2021/06/11 09:23:21;;;;;;;9.10;8.47;;;31.30;42.50;;;;;;5013004;28;20193;-52
2021/06/11 09:25:49;;;;;;;8.43;7.83;;;31.60;41.70;;;;;;5012297;28;20331;-53
2021/06/11 09:28:23;;;;;;;9.93;9.10;;;31.80;40.90;;;;;;5013383;28;20285;-55
2021/06/11 09:30:54;;;;;;;8.20;7.70;;;31.90;40.60;;;;;;5012750;28;20900;-53
2021/06/11 09:33:23;;;;;;;8.70;8.00;;;31.90;40.40;;;;;;5011545;28;20847;-53
2021/06/11 09:35:56;;;;;;;8.10;7.60;;;32.10;39.90;;;;;;5012393;28;20433;-53
2021/06/11 09:38:25;;;;;;;7.73;7.23;;;32.10;39.00;;;;;;5012928;28;20466;-52
2021/06/11 09:41:07;;;;;;;8.53;7.93;;;32.20;39.10;;;;;;5013533;28;20429;-52
2021/06/11 09:43:33;;;;;;;8.90;7.30;;;32.30;38.50;;;;;;5018937;28;20453;-53
2021/06/11 09:46:10;;;;;;;7.40;6.70;;;32.20;38.90;;;;;;5012794;28;20845;-53
2021/06/11 09:48:48;;;;;;;7.53;6.83;;;32.40;38.90;;;;;;5012048;28;20449;-54
2021/06/11 09:51:19;;;;;;;8.57;7.80;;;32.60;39.10;;;;;;5014514;28;20774;-52
2021/06/11 09:53:45;;;;;;;8.40;7.70;;;32.80;38.60;;;;;;5031309;28;20551;-53
2021/06/11 09:56:27;;;;;;;8.83;8.07;;;33.00;38.20;;;;;;5032140;28;20913;-54
2021/06/11 09:58:56;;;;;;;8.10;7.50;;;33.20;37.50;;;;;;5030717;28;20193;-54
2021/06/11 10:01:22;;;;;;;9.20;8.47;;;33.20;38.30;;;;;;5032428;28;20907;-54
2021/06/11 10:03:50;;;;;;;8.40;7.80;;;33.30;36.60;;;;;;5030086;28;20428;-56
2021/06/11 10:06:18;;;;;;;8.17;7.57;;;33.10;36.80;;;;;;5031907;28;20515;-53
2021/06/11 10:08:46;;;;;;;8.03;7.43;;;33.30;37.50;;;;;;5031473;28;20436;-54
2021/06/11 10:11:14;;;;;;;8.20;7.50;;;33.50;37.00;;;;;;5032248;28;20543;-54
2021/06/11 10:13:40;;;;;;;7.57;7.03;;;33.70;36.00;;;;;;5031142;28;20962;-53
2021/06/11 10:16:12;;;;;;;7.80;7.30;;;33.90;35.20;;;;;;5032138;28;20935;-53
2021/06/11 10:18:38;;;;;;;7.70;7.10;;;33.90;35.40;;;;;;5031430;28;20919;-53
2021/06/11 10:21:05;;;;;;;7.93;7.30;;;33.60;36.20;;;;;;5016934;28;20436;-55
2021/06/11 10:23:32;;;;;;;7.30;6.80;;;33.70;35.20;;;;;;5012215;28;20978;-54
2021/06/11 10:26:01;;;;;;;8.93;8.27;;;33.60;33.70;;;;;;5010338;28;20544;-54
2021/06/11 10:28:41;;;;;;;7.90;7.27;;;33.70;34.40;;;;;;5011906;28;20524;-53
2021/06/11 10:31:09;;;;;;;7.43;6.93;;;33.40;35.20;;;;;;5012019;28;20827;-54
2021/06/11 10:33:44;;;;;;;7.13;6.43;;;33.50;33.70;;;;;;5011326;28;20437;-54
2021/06/11 10:36:25;;;;;;;6.57;6.07;;;33.90;33.10;;;;;;5014278;28;20452;-54
2021/06/11 10:38:51;;;;;;;6.60;6.03;;;34.10;32.40;;;;;;5031116;28;21006;-53
2021/06/11 10:41:17;;;;;;;6.90;6.40;;;34.10;32.50;;;;;;5031638;28;20482;-54
2021/06/11 10:43:43;;;;;;;5.80;5.50;;;34.20;30.70;;;;;;5016000;28;20433;-55
2021/06/11 10:46:31;;;;;;;5.50;5.10;;;34.40;31.20;;;;;;5011944;28;20249;-52
2021/06/11 10:48:57;;;;;;;4.63;4.33;;;34.70;29.90;;;;;;5010996;28;20468;-54
2021/06/11 10:51:38;;;;;;;5.20;4.90;;;34.80;28.00;;;;;;5010356;28;20476;-53
2021/06/11 10:54:17;;;;;;;6.10;5.60;;;35.10;28.20;;;;;;5010756;28;20194;-53
2021/06/11 10:56:58;;;;;;;6.90;6.40;;;35.30;28.50;;;;;;5011844;28;20440;-53
2021/06/11 10:59:40;;;;;;;7.20;6.70;;;35.50;28.80;;;;;;5011092;28;20432;-54
2021/06/11 11:02:07;;;;;;;6.67;6.27;;;35.60;28.90;;;;;;5011904;28;20448;-55
2021/06/11 11:04:39;;;;;;;6.53;6.17;;;35.80;30.10;;;;;;5011186;28;20429;-52
2021/06/11 11:07:23;;;;;;;6.70;6.20;;;35.90;28.90;;;;;;5011492;28;20628;-55
2021/06/11 11:09:56;;;;;;;7.00;6.50;;;36.00;29.20;;;;;;5011091;28;20488;-54
2021/06/11 11:12:29;;;;;;;7.50;6.90;;;36.10;28.80;;;;;;5022162;28;20511;-54
2021/06/11 11:14:56;;;;;;;6.00;5.60;;;36.10;28.60;;;;;;5030279;28;20428;-54
2021/06/11 11:17:22;;;;;;;7.00;6.50;;;36.10;28.70;;;;;;5033678;28;20424;-54
2021/06/11 11:19:59;;;;;;;6.87;6.47;;;36.30;28.90;;;;;;5029562;28;20995;-54
2021/06/11 11:22:36;;;;;;;8.03;7.17;;;36.50;31.80;;;;;;5015397;28;20206;-55
2021/06/11 11:25:14;;;;;;;8.83;8.13;;;36.50;30.50;;;;;;5014527;28;20472;-53
2021/06/11 11:27:51;;;;;;;7.70;7.30;;;36.60;29.40;;;;;;5015224;28;20440;-54
2021/06/11 11:30:18;;;;;;;7.10;6.63;;;36.70;29.50;;;;;;5014860;28;20449;-53
2021/06/11 11:32:44;;;;;;;6.97;6.37;;;36.70;29.40;;;;;;5015451;28;20467;-54
2021/06/11 11:35:10;;;;;;;6.97;6.37;;;36.60;28.60;;;;;;5014468;28;20441;-53
2021/06/11 11:37:36;;;;;;;7.27;6.77;;;36.50;28.40;;;;;;5029181;28;20204;-54
2021/06/11 11:40:03;;;;;;;7.30;6.70;;;36.30;28.40;;;;;;5034567;28;20428;-53
2021/06/11 11:42:30;;;;;;;7.27;6.77;;;36.30;29.80;;;;;;5029600;28;20221;-54
2021/06/11 11:44:55;;;;;;;7.40;6.80;;;36.40;28.40;;;;;;5012498;28;20468;-56
2021/06/11 11:47:21;;;;;;;8.40;7.60;;;35.90;29.80;;;;;;5014920;28;20437;-54
2021/06/11 11:49:47;;;;;;;6.70;6.30;;;36.00;30.00;;;;;;5014702;28;20273;-54
2021/06/11 11:52:12;;;;;;;7.03;6.63;;;36.10;29.20;;;;;;5014970;28;20563;-54
2021/06/11 11:54:38;;;;;;;7.37;6.70;;;36.20;29.30;;;;;;5014234;28;20618;-53
2021/06/11 11:57:04;;;;;;;7.90;7.20;;;36.20;29.00;;;;;;5014925;28;20193;-54
2021/06/11 11:59:30;;;;;;;7.77;7.17;;;36.10;28.40;;;;;;5014134;28;20251;-54
2021/06/11 12:01:55;;;;;;;6.57;6.07;;;36.00;28.50;;;;;;5014881;28;20494;-54
2021/06/11 12:04:22;;;;;;;6.80;6.40;;;36.00;28.70;;;;;;5013971;28;20190;-55
2021/06/11 12:06:49;;;;;;;7.30;6.70;;;36.10;28.50;;;;;;5014363;28;20229;-53
2021/06/11 12:09:14;;;;;;;7.07;6.50;;;36.10;29.60;;;;;;5014059;28;20941;-54
2021/06/11 12:11:40;;;;;;;6.70;6.20;;;36.10;29.20;;;;;;5017775;28;20460;-53
2021/06/11 12:14:06;;;;;;;7.23;6.57;;;36.10;28.40;;;;;;5033501;28;20196;-54
2021/06/11 12:16:32;;;;;;;6.50;6.10;;;36.20;28.00;;;;;;5034429;28;20675;-54
2021/06/11 12:18:58;;;;;;;6.50;6.10;;;36.20;28.50;;;;;;5033527;28;20192;-54
2021/06/11 12:21:24;;;;;;;6.27;5.77;;;36.20;28.30;;;;;;5015811;28;20433;-52
2021/06/11 12:23:50;;;;;;;6.20;5.80;;;36.00;29.10;;;;;;5013651;28;20281;-54
2021/06/11 12:26:16;;;;;;;6.47;6.03;;;35.80;29.70;;;;;;5013785;28;20578;-54
2021/06/11 12:28:42;;;;;;;6.70;6.20;;;35.70;28.70;;;;;;5012860;28;20652;-54
2021/06/11 12:31:08;;;;;;;5.50;5.10;;;35.70;29.20;;;;;;5014262;28;20224;-52
2021/06/11 12:33:33;;;;;;;5.77;5.47;;;36.00;28.40;;;;;;5013467;28;20194;-54
2021/06/11 12:36:00;;;;;;;6.37;5.97;;;36.00;27.70;;;;;;5015051;28;20218;-53
2021/06/11 12:38:26;;;;;;;6.77;6.27;;;36.00;28.20;;;;;;5032342;28;20198;-53
2021/06/11 12:40:55;;;;;;;6.07;5.67;;;36.10;28.90;;;;;;5033310;28;20927;-54
2021/06/11 12:43:28;;;;;;;5.47;5.13;;;36.10;28.80;;;;;;5020897;28;20194;-54
2021/06/11 12:45:54;;;;;;;5.87;5.37;;;36.10;27.90;;;;;;5020300;28;20531;-54
2021/06/11 12:48:19;;;;;;;5.60;5.10;;;36.10;27.50;;;;;;5033610;28;20496;-54
2021/06/11 12:50:45;;;;;;;6.03;5.73;;;36.00;27.20;;;;;;5033016;28;20185;-54